Time;durP1;ratioP1;P1;durP2;ratioP2;P2;SDS_P1;SDS_P2;PMS_P1;PMS_P2;Temp;Humidity;BMP_temperature;BMP_pressure;BME280_temperature;BME280_humidity;BME280_pressure;Samples;Min_cycle;Max_cycle;Signal;HPM_P1;HPM_P2
2021/09/09 00:00:11;;;;;;;10.00;8.45;;;22.30;59.00;;;;;;5035805;28;20026;-71
2021/09/09 00:02:36;;;;;;;9.70;8.55;;;22.30;58.80;;;;;;5053526;28;20029;-72
2021/09/09 00:05:02;;;;;;;10.13;7.80;;;22.30;59.10;;;;;;5053342;28;20477;-71
2021/09/09 00:07:28;;;;;;;11.18;8.27;;;22.30;59.20;;;;;;5053262;28;20017;-72
2021/09/09 00:09:55;;;;;;;10.52;8.43;;;22.30;59.20;;;;;;5053467;28;20021;-72
2021/09/09 00:12:21;;;;;;;11.40;8.43;;;22.20;59.20;;;;;;5053593;28;20028;-72
2021/09/09 00:14:47;;;;;;;10.60;8.82;;;22.20;59.30;;;;;;5053255;28;20021;-72
2021/09/09 00:17:12;;;;;;;11.05;8.82;;;22.20;59.50;;;;;;5053144;28;20117;-72
2021/09/09 00:19:38;;;;;;;14.50;10.02;;;22.20;59.70;;;;;;5053431;28;20029;-71
2021/09/09 00:22:04;;;;;;;11.45;10.00;;;22.20;60.10;;;;;;5053423;28;20024;-72
2021/09/09 00:24:29;;;;;;;12.50;9.40;;;22.20;60.20;;;;;;5035397;28;20363;-73
2021/09/09 00:26:55;;;;;;;10.25;8.70;;;22.20;60.40;;;;;;5053364;28;20451;-72
2021/09/09 00:29:21;;;;;;;13.18;9.50;;;22.10;60.40;;;;;;5053735;28;20043;-72
2021/09/09 00:31:46;;;;;;;12.98;9.73;;;22.10;60.50;;;;;;5052970;28;20071;-71
2021/09/09 00:34:12;;;;;;;12.18;9.27;;;22.10;60.50;;;;;;5052937;28;20513;-72
2021/09/09 00:36:38;;;;;;;11.00;9.57;;;22.10;60.60;;;;;;5052914;28;20041;-73
2021/09/09 00:39:04;;;;;;;11.30;9.23;;;22.00;60.60;;;;;;5053159;28;20025;-71
2021/09/09 00:41:30;;;;;;;11.65;9.23;;;22.00;60.60;;;;;;5052937;28;20033;-72
2021/09/09 00:43:57;;;;;;;11.10;9.60;;;22.10;60.60;;;;;;5052733;28;20502;-71
2021/09/09 00:46:24;;;;;;;11.95;8.93;;;22.10;60.60;;;;;;5052610;28;20032;-71
2021/09/09 00:48:50;;;;;;;10.40;9.07;;;22.00;60.70;;;;;;5052735;28;20025;-73
2021/09/09 00:51:15;;;;;;;10.65;8.80;;;22.00;60.60;;;;;;5052909;28;20029;-71
2021/09/09 00:53:42;;;;;;;11.88;9.30;;;22.00;60.50;;;;;;5052645;28;20063;-72
2021/09/09 00:56:09;;;;;;;10.77;8.75;;;22.00;60.70;;;;;;5052368;28;20021;-70
2021/09/09 00:58:39;;;;;;;13.80;9.52;;;22.00;60.60;;;;;;5052510;28;20058;-71
2021/09/09 01:01:05;;;;;;;13.85;9.07;;;22.00;60.70;;;;;;5052554;28;20025;-70
2021/09/09 01:03:30;;;;;;;11.18;9.38;;;22.00;60.70;;;;;;5052630;28;20381;-71
2021/09/09 01:05:56;;;;;;;11.07;8.98;;;21.90;60.70;;;;;;5052411;28;20129;-71
2021/09/09 01:08:22;;;;;;;13.05;9.05;;;21.90;60.80;;;;;;5052477;28;20013;-71
2021/09/09 01:10:47;;;;;;;9.70;8.70;;;21.90;60.70;;;;;;5034520;28;20454;-71
2021/09/09 01:13:13;;;;;;;11.75;8.98;;;21.90;60.70;;;;;;5052578;28;20021;-71
2021/09/09 01:15:43;;;;;;;10.77;8.90;;;21.90;60.80;;;;;;5052191;28;20049;-71
2021/09/09 01:18:11;;;;;;;10.52;8.90;;;21.80;60.60;;;;;;5034339;28;20032;-70
2021/09/09 01:20:37;;;;;;;11.55;8.40;;;21.80;60.80;;;;;;5052511;28;20049;-71
2021/09/09 01:23:04;;;;;;;10.60;8.40;;;21.90;60.70;;;;;;5052344;28;20032;-71
2021/09/09 01:25:29;;;;;;;10.30;8.38;;;21.90;60.50;;;;;;5052321;28;20071;-71
2021/09/09 01:27:56;;;;;;;10.75;8.48;;;21.80;60.50;;;;;;5052561;28;20032;-70
2021/09/09 01:30:21;;;;;;;9.95;8.38;;;21.80;60.20;;;;;;5052382;28;20108;-70
2021/09/09 01:32:47;;;;;;;12.02;8.07;;;21.80;60.20;;;;;;5052483;28;20104;-71
2021/09/09 01:35:13;;;;;;;9.80;8.48;;;21.80;60.00;;;;;;5052075;28;20453;-71
2021/09/09 01:37:39;;;;;;;9.45;8.13;;;21.80;59.80;;;;;;5034140;28;20041;-71
2021/09/09 01:40:05;;;;;;;9.30;8.15;;;21.80;59.70;;;;;;5052229;28;20045;-70
2021/09/09 01:42:31;;;;;;;10.60;8.73;;;21.80;59.90;;;;;;5052602;28;20113;-71
2021/09/09 01:44:56;;;;;;;11.45;8.55;;;21.80;60.00;;;;;;5052135;28;20520;-71
2021/09/09 01:47:22;;;;;;;11.95;7.90;;;21.60;60.00;;;;;;5052171;28;20033;-71
2021/09/09 01:49:48;;;;;;;11.52;8.55;;;21.60;60.10;;;;;;5052305;28;20025;-71
2021/09/09 01:52:14;;;;;;;12.73;8.15;;;21.50;60.00;;;;;;5052483;28;20033;-70
2021/09/09 01:54:39;;;;;;;10.98;8.43;;;21.50;60.30;;;;;;5051736;28;20029;-71
2021/09/09 01:57:06;;;;;;;10.02;8.10;;;21.50;60.30;;;;;;5052183;28;20029;-72
2021/09/09 01:59:31;;;;;;;10.63;7.95;;;21.40;60.20;;;;;;5052105;28;20025;-70
2021/09/09 02:01:57;;;;;;;9.18;8.02;;;21.40;60.10;;;;;;5034383;28;20393;-72
2021/09/09 02:04:23;;;;;;;9.13;7.50;;;21.50;60.20;;;;;;5051975;28;20025;-71
2021/09/09 02:06:49;;;;;;;12.00;8.50;;;21.40;60.20;;;;;;5052068;28;20096;-73
2021/09/09 02:09:15;;;;;;;12.85;8.65;;;21.40;60.10;;;;;;5052081;28;20090;-72
2021/09/09 02:11:40;;;;;;;9.52;8.23;;;21.40;60.30;;;;;;5033918;28;20017;-71
2021/09/09 02:14:06;;;;;;;8.88;7.68;;;21.30;60.20;;;;;;5052205;28;20453;-70
2021/09/09 02:16:32;;;;;;;12.52;8.60;;;21.40;60.30;;;;;;5051725;28;20068;-70
2021/09/09 02:18:57;;;;;;;10.45;8.25;;;21.40;60.10;;;;;;5055448;28;20536;-71
2021/09/09 02:21:25;;;;;;;8.90;7.50;;;21.30;59.90;;;;;;5055515;28;20505;-71
2021/09/09 02:23:50;;;;;;;11.77;8.20;;;21.30;60.00;;;;;;5055266;28;20064;-70
2021/09/09 02:26:16;;;;;;;10.20;8.02;;;21.30;60.10;;;;;;5055220;28;20381;-71
2021/09/09 02:28:42;;;;;;;10.00;7.97;;;21.30;60.20;;;;;;5037322;28;20078;-70
2021/09/09 02:31:07;;;;;;;11.00;8.30;;;21.20;60.30;;;;;;5055407;28;20028;-71
2021/09/09 02:33:33;;;;;;;11.77;8.25;;;21.30;60.20;;;;;;5055381;28;20096;-71
2021/09/09 02:35:59;;;;;;;9.15;8.00;;;21.20;60.10;;;;;;5055443;28;20056;-71
2021/09/09 02:38:24;;;;;;;12.32;7.93;;;21.30;60.20;;;;;;5055398;28;20033;-71
2021/09/09 02:40:50;;;;;;;8.70;7.80;;;21.30;59.90;;;;;;5055235;28;20094;-71
2021/09/09 02:43:16;;;;;;;10.38;8.07;;;21.40;60.10;;;;;;5055059;28;20120;-71
2021/09/09 02:45:41;;;;;;;10.63;7.50;;;21.30;60.10;;;;;;5054972;28;20423;-70
2021/09/09 02:48:07;;;;;;;11.43;8.18;;;21.30;60.20;;;;;;5055037;28;20021;-71
2021/09/09 02:50:33;;;;;;;11.50;8.35;;;21.20;60.10;;;;;;5054896;28;20029;-72
2021/09/09 02:52:59;;;;;;;9.02;7.63;;;21.20;60.10;;;;;;5054845;28;20572;-71
2021/09/09 02:55:25;;;;;;;10.23;8.45;;;21.30;60.20;;;;;;5054856;28;20029;-71
2021/09/09 02:57:51;;;;;;;10.10;8.23;;;21.30;60.20;;;;;;5055244;28;20064;-72
2021/09/09 03:00:17;;;;;;;9.23;8.02;;;21.30;60.00;;;;;;5054994;28;20023;-72
2021/09/09 03:02:43;;;;;;;10.27;7.97;;;21.30;60.30;;;;;;5054870;28;20017;-72
2021/09/09 03:05:09;;;;;;;8.82;7.72;;;21.30;60.00;;;;;;5054592;28;20056;-72
2021/09/09 03:07:35;;;;;;;10.70;8.55;;;21.20;60.00;;;;;;5054622;28;20029;-72
2021/09/09 03:10:00;;;;;;;12.25;9.13;;;21.20;60.40;;;;;;5054631;28;20493;-72
2021/09/09 03:12:26;;;;;;;9.90;8.60;;;21.20;60.40;;;;;;5054845;28;20029;-73
2021/09/09 03:14:52;;;;;;;12.57;8.38;;;21.10;60.50;;;;;;5054615;28;20021;-72
2021/09/09 03:17:18;;;;;;;11.68;9.57;;;21.10;60.50;;;;;;5054416;28;20052;-72
2021/09/09 03:19:43;;;;;;;9.88;8.32;;;21.10;60.50;;;;;;5036480;28;20028;-72
2021/09/09 03:22:09;;;;;;;11.63;8.68;;;21.10;60.80;;;;;;5036634;28;20029;-72
2021/09/09 03:24:35;;;;;;;12.52;8.98;;;21.10;61.00;;;;;;5036391;28;20378;-70
2021/09/09 03:27:01;;;;;;;10.70;8.18;;;21.10;60.60;;;;;;5054664;28;20025;-72
2021/09/09 03:29:26;;;;;;;9.45;8.10;;;21.20;60.40;;;;;;5054596;28;20146;-71
2021/09/09 03:31:53;;;;;;;13.35;8.73;;;21.10;60.50;;;;;;5036382;28;20494;-72
2021/09/09 03:34:19;;;;;;;11.88;7.93;;;21.10;60.50;;;;;;5054113;28;20077;-72
2021/09/09 03:36:44;;;;;;;13.48;8.75;;;21.10;60.50;;;;;;5054166;28;20108;-73
2021/09/09 03:39:10;;;;;;;13.40;8.65;;;21.10;60.30;;;;;;5054308;28;20066;-71
2021/09/09 03:41:36;;;;;;;11.18;8.70;;;21.10;60.30;;;;;;5054117;28;20029;-72
2021/09/09 03:44:01;;;;;;;10.82;8.52;;;21.10;60.20;;;;;;5053851;28;20191;-72
2021/09/09 03:46:27;;;;;;;11.93;8.68;;;21.10;60.30;;;;;;5053855;28;20021;-71
2021/09/09 03:48:53;;;;;;;10.20;8.20;;;21.10;60.20;;;;;;5036389;28;20433;-72
2021/09/09 03:51:18;;;;;;;9.13;7.60;;;21.10;60.40;;;;;;5053771;28;20013;-72
2021/09/09 03:53:44;;;;;;;12.90;7.82;;;21.10;60.20;;;;;;5053938;28;20454;-71
2021/09/09 03:56:10;;;;;;;11.30;8.10;;;21.00;60.30;;;;;;5053445;28;20454;-70
2021/09/09 03:58:36;;;;;;;11.48;8.32;;;21.00;60.10;;;;;;5053528;28;20040;-73
2021/09/09 04:01:02;;;;;;;9.70;8.10;;;21.00;60.10;;;;;;5053457;28;20090;-71
2021/09/09 04:03:27;;;;;;;10.05;8.15;;;21.00;60.30;;;;;;5053500;28;20116;-71
2021/09/09 04:05:53;;;;;;;12.95;8.20;;;21.10;60.40;;;;;;5035557;28;20021;-73
2021/09/09 04:08:19;;;;;;;10.30;8.55;;;21.10;60.50;;;;;;5053689;28;20021;-72
2021/09/09 04:10:44;;;;;;;12.35;8.73;;;21.00;60.60;;;;;;5035244;28;20029;-71
2021/09/09 04:13:10;;;;;;;11.27;8.55;;;21.00;60.80;;;;;;5035255;28;20029;-72
2021/09/09 04:15:36;;;;;;;11.70;8.35;;;20.90;61.10;;;;;;5053090;28;20111;-73
2021/09/09 04:18:02;;;;;;;11.73;9.23;;;20.90;61.20;;;;;;5053370;28;20509;-72
2021/09/09 04:20:28;;;;;;;11.02;8.50;;;20.90;61.80;;;;;;5053279;28;20017;-73
2021/09/09 04:22:53;;;;;;;12.65;9.25;;;20.80;61.70;;;;;;5053458;28;20429;-72
2021/09/09 04:25:19;;;;;;;12.20;9.45;;;20.80;62.00;;;;;;5035002;28;20060;-72
2021/09/09 04:27:45;;;;;;;11.77;9.23;;;20.80;62.10;;;;;;5053043;28;20467;-73
2021/09/09 04:30:11;;;;;;;10.40;9.18;;;20.80;62.50;;;;;;5053228;28;20370;-71
2021/09/09 04:32:36;;;;;;;11.20;8.90;;;20.70;61.50;;;;;;5052993;28;20025;-72
2021/09/09 04:35:02;;;;;;;12.93;10.07;;;20.70;62.00;;;;;;5052978;28;20430;-73
2021/09/09 04:37:28;;;;;;;11.02;8.80;;;20.70;61.80;;;;;;5034670;28;20036;-72
2021/09/09 04:39:54;;;;;;;11.40;9.23;;;20.70;61.90;;;;;;5051900;28;20136;-71
2021/09/09 04:42:20;;;;;;;11.23;9.93;;;20.70;62.10;;;;;;5034757;28;20032;-72
2021/09/09 04:44:45;;;;;;;14.35;9.25;;;20.60;62.10;;;;;;5052488;28;20053;-72
2021/09/09 04:47:11;;;;;;;11.30;8.85;;;20.60;62.20;;;;;;5052748;28;20036;-71
2021/09/09 04:49:37;;;;;;;12.05;9.73;;;20.60;62.20;;;;;;5052645;28;20025;-72
2021/09/09 04:52:02;;;;;;;12.77;9.70;;;20.60;62.20;;;;;;5052943;28;20036;-72
2021/09/09 04:54:28;;;;;;;13.65;9.60;;;20.70;61.90;;;;;;5034636;28;20423;-71
2021/09/09 04:56:54;;;;;;;11.88;9.55;;;20.60;62.10;;;;;;5052507;28;20032;-71
2021/09/09 04:59:20;;;;;;;14.10;9.98;;;20.60;62.40;;;;;;5052586;28;20076;-71
2021/09/09 05:01:45;;;;;;;11.95;9.27;;;20.60;62.10;;;;;;5052492;28;20059;-71
2021/09/09 05:04:11;;;;;;;11.50;9.35;;;20.60;62.00;;;;;;5052372;28;20033;-71
2021/09/09 05:06:37;;;;;;;12.35;9.50;;;20.70;62.00;;;;;;5052430;28;20032;-71
2021/09/09 05:09:02;;;;;;;10.23;9.13;;;20.70;62.10;;;;;;5052436;28;20036;-71
2021/09/09 05:11:28;;;;;;;11.70;8.57;;;20.60;61.70;;;;;;5052337;28;20029;-71
2021/09/09 05:13:53;;;;;;;15.90;8.82;;;20.60;61.60;;;;;;5052446;28;20036;-71
2021/09/09 05:16:19;;;;;;;10.38;8.90;;;20.50;61.20;;;;;;5052109;28;20064;-71
2021/09/09 05:18:45;;;;;;;11.18;8.32;;;20.50;60.90;;;;;;5052118;28;20132;-71
2021/09/09 05:21:10;;;;;;;13.00;8.80;;;20.50;61.10;;;;;;5052389;28;20076;-71
2021/09/09 05:23:36;;;;;;;9.77;8.05;;;20.50;61.00;;;;;;5052303;28;20036;-71
2021/09/09 05:26:02;;;;;;;12.93;8.00;;;20.50;60.70;;;;;;5052308;28;20025;-72
2021/09/09 05:28:27;;;;;;;11.65;8.18;;;20.50;60.60;;;;;;5052246;28;20025;-71
2021/09/09 05:30:53;;;;;;;13.00;8.90;;;20.60;61.30;;;;;;5052302;28;20021;-72
2021/09/09 05:33:19;;;;;;;9.20;8.13;;;20.60;60.60;;;;;;5052145;28;20208;-73
2021/09/09 05:35:45;;;;;;;12.77;8.48;;;20.60;60.60;;;;;;5051998;28;20102;-71
2021/09/09 05:38:11;;;;;;;13.57;8.68;;;20.60;60.40;;;;;;5052008;28;20036;-72
2021/09/09 05:40:37;;;;;;;15.10;9.23;;;20.60;60.40;;;;;;5052065;28;20028;-71
2021/09/09 05:43:02;;;;;;;12.05;8.40;;;20.70;60.80;;;;;;5052260;28;20025;-70
2021/09/09 05:45:28;;;;;;;12.00;8.52;;;20.80;60.30;;;;;;5051697;28;20028;-71
2021/09/09 05:47:54;;;;;;;15.80;9.60;;;20.80;60.10;;;;;;5052205;28;20029;-71
2021/09/09 05:50:20;;;;;;;16.88;8.70;;;21.00;60.00;;;;;;5052257;28;20036;-71
2021/09/09 05:52:46;;;;;;;12.55;7.97;;;21.10;59.60;;;;;;5054331;28;20028;-71
2021/09/09 05:55:12;;;;;;;12.00;8.30;;;21.30;58.90;;;;;;5055976;28;20032;-72
2021/09/09 05:57:38;;;;;;;10.02;7.75;;;21.50;58.50;;;;;;5037907;28;20025;-71
2021/09/09 06:00:07;;;;;;;15.13;8.52;;;21.90;58.30;;;;;;5056382;28;20025;-72
2021/09/09 06:02:40;;;;;;;10.85;8.48;;;22.10;56.30;;;;;;5037872;28;20083;-71
2021/09/09 06:05:06;;;;;;;16.17;8.68;;;22.30;56.70;;;;;;5037396;28;20029;-72
2021/09/09 06:07:32;;;;;;;13.55;9.60;;;22.50;56.20;;;;;;5037396;28;20048;-72
2021/09/09 06:09:57;;;;;;;11.68;8.80;;;22.70;55.60;;;;;;5055698;28;20064;-72
2021/09/09 06:12:26;;;;;;;15.95;9.38;;;22.80;55.30;;;;;;5055850;28;20059;-70
2021/09/09 06:14:52;;;;;;;15.82;8.48;;;23.00;55.00;;;;;;5037424;28;20032;-71
2021/09/09 06:17:18;;;;;;;12.02;8.65;;;23.20;54.40;;;;;;5055062;28;20041;-72
2021/09/09 06:19:44;;;;;;;17.02;8.98;;;23.30;54.10;;;;;;5055267;28;20074;-71
2021/09/09 06:22:10;;;;;;;15.68;8.93;;;23.60;53.60;;;;;;5055334;28;20055;-71
2021/09/09 06:24:35;;;;;;;15.15;8.77;;;23.70;52.80;;;;;;5055198;28;20393;-73
2021/09/09 06:27:01;;;;;;;12.10;8.20;;;23.90;52.60;;;;;;5037558;28;20017;-71
2021/09/09 06:29:27;;;;;;;11.85;7.63;;;24.10;52.60;;;;;;5054820;28;20104;-72
2021/09/09 06:31:52;;;;;;;14.40;7.68;;;24.30;51.70;;;;;;5055146;28;20021;-72
2021/09/09 06:34:18;;;;;;;13.77;7.55;;;24.40;51.50;;;;;;5055199;28;20025;-73
2021/09/09 06:36:44;;;;;;;11.70;7.60;;;24.50;51.00;;;;;;5055042;28;20021;-72
2021/09/09 06:39:11;;;;;;;15.15;7.93;;;24.60;51.00;;;;;;5037233;28;20070;-72
2021/09/09 06:41:37;;;;;;;13.95;7.72;;;24.60;51.10;;;;;;5055101;28;20029;-72
2021/09/09 06:44:03;;;;;;;9.55;7.13;;;24.70;50.80;;;;;;5055028;28;20389;-71
2021/09/09 06:46:28;;;;;;;15.18;7.93;;;24.70;50.70;;;;;;5054833;28;20024;-74
2021/09/09 06:48:54;;;;;;;13.80;7.70;;;24.80;50.10;;;;;;5055211;28;20037;-71
2021/09/09 06:51:21;;;;;;;11.88;8.20;;;25.00;49.90;;;;;;5055005;28;20025;-73
2021/09/09 06:53:48;;;;;;;13.20;6.85;;;25.10;49.40;;;;;;5055085;28;20021;-71
2021/09/09 06:56:14;;;;;;;12.80;7.25;;;25.30;49.30;;;;;;5036794;28;20021;-72
2021/09/09 06:58:39;;;;;;;11.43;6.90;;;25.40;48.80;;;;;;5054589;28;20033;-71
2021/09/09 07:01:22;;;;;;;13.85;7.60;;;25.50;48.70;;;;;;5036880;28;20105;-74
2021/09/09 07:03:47;;;;;;;10.43;6.53;;;25.50;49.70;;;;;;5036301;28;20029;-71
2021/09/09 07:06:15;;;;;;;10.25;6.88;;;25.50;48.40;;;;;;5036592;28;20505;-71
2021/09/09 07:08:41;;;;;;;13.90;8.35;;;25.60;47.90;;;;;;5054666;28;20076;-72
2021/09/09 07:11:07;;;;;;;11.25;7.28;;;25.60;48.00;;;;;;5054623;28;20049;-72
2021/09/09 07:13:33;;;;;;;13.45;6.97;;;25.70;48.00;;;;;;5054876;28;20463;-71
2021/09/09 07:16:00;;;;;;;13.82;7.47;;;25.80;47.90;;;;;;5054241;28;20048;-71
2021/09/09 07:18:26;;;;;;;10.57;6.88;;;25.90;47.60;;;;;;5054629;28;20167;-70
2021/09/09 07:20:52;;;;;;;13.30;7.45;;;25.90;47.50;;;;;;5054561;28;20099;-73
2021/09/09 07:23:18;;;;;;;9.98;7.07;;;25.80;47.80;;;;;;5054182;28;20514;-71
2021/09/09 07:25:44;;;;;;;10.90;7.40;;;25.90;47.50;;;;;;5053967;28;20108;-71
2021/09/09 07:28:10;;;;;;;16.38;7.68;;;26.00;47.50;;;;;;5036227;28;20437;-71
2021/09/09 07:30:36;;;;;;;13.50;7.25;;;26.00;47.30;;;;;;5054314;28;20028;-72
2021/09/09 07:33:03;;;;;;;14.57;7.57;;;26.10;47.50;;;;;;5054237;28;20037;-73
2021/09/09 07:35:30;;;;;;;14.60;7.38;;;26.10;47.70;;;;;;5054181;28;20123;-72
2021/09/09 07:37:55;;;;;;;13.02;7.25;;;26.30;47.30;;;;;;5053895;28;20040;-71
2021/09/09 07:40:21;;;;;;;13.05;7.30;;;26.40;47.50;;;;;;5053777;28;20028;-72
2021/09/09 07:42:47;;;;;;;10.20;6.65;;;26.40;47.40;;;;;;5053942;28;20478;-71
2021/09/09 07:45:13;;;;;;;17.92;8.10;;;26.40;47.30;;;;;;5053746;28;20033;-71
2021/09/09 07:47:39;;;;;;;13.93;6.88;;;26.50;47.30;;;;;;5053693;28;20406;-72
2021/09/09 07:50:07;;;;;;;16.65;7.68;;;26.50;47.30;;;;;;5053570;28;20025;-72
2021/09/09 07:52:33;;;;;;;16.23;7.47;;;26.50;47.00;;;;;;5053674;28;20029;-71
2021/09/09 07:54:58;;;;;;;23.33;8.32;;;26.50;47.30;;;;;;5035161;28;20084;-72
2021/09/09 07:57:24;;;;;;;17.65;7.35;;;26.50;47.30;;;;;;5053503;28;20036;-72
2021/09/09 07:59:50;;;;;;;11.13;7.00;;;26.40;47.10;;;;;;5053655;28;20032;-70
2021/09/09 08:02:16;;;;;;;12.13;7.32;;;26.40;47.10;;;;;;5053456;28;20320;-73
2021/09/09 08:04:42;;;;;;;14.50;6.55;;;26.30;47.30;;;;;;5053094;28;20584;-72
2021/09/09 08:07:08;;;;;;;11.85;6.82;;;26.20;47.60;;;;;;5053335;28;20036;-71
2021/09/09 08:09:33;;;;;;;12.38;7.07;;;26.10;47.60;;;;;;5035293;28;20032;-72
2021/09/09 08:12:01;;;;;;;16.02;7.38;;;26.00;48.20;;;;;;5052920;28;20129;-72
2021/09/09 08:14:28;;;;;;;10.27;6.65;;;25.90;47.70;;;;;;5034517;28;20057;-72
2021/09/09 08:16:53;;;;;;;11.77;7.03;;;25.90;47.70;;;;;;5052805;28;20044;-72
2021/09/09 08:19:19;;;;;;;15.68;7.88;;;25.90;47.70;;;;;;5053274;28;20474;-72
2021/09/09 08:21:45;;;;;;;11.77;7.78;;;25.90;48.00;;;;;;5053024;28;20029;-72
2021/09/09 08:24:11;;;;;;;12.40;7.15;;;25.80;47.70;;;;;;5052886;28;20033;-72
2021/09/09 08:26:37;;;;;;;11.93;7.30;;;25.70;48.00;;;;;;5035011;28;20432;-72
2021/09/09 08:29:03;;;;;;;10.93;6.95;;;25.60;48.10;;;;;;5052997;28;20037;-71
2021/09/09 08:31:29;;;;;;;15.30;7.22;;;25.50;48.20;;;;;;5052970;28;20021;-72
2021/09/09 08:33:55;;;;;;;14.30;7.43;;;25.60;48.30;;;;;;5053090;28;20155;-71
2021/09/09 08:36:21;;;;;;;13.18;6.90;;;25.60;48.20;;;;;;5035053;28;20020;-71
2021/09/09 08:38:48;;;;;;;13.90;6.85;;;25.60;48.10;;;;;;5052586;28;20124;-72
2021/09/09 08:41:14;;;;;;;14.30;6.63;;;25.60;47.90;;;;;;5034766;28;20351;-71
2021/09/09 08:43:40;;;;;;;13.27;7.28;;;25.60;48.10;;;;;;5052331;28;20036;-71
2021/09/09 08:46:07;;;;;;;10.55;6.25;;;25.60;48.40;;;;;;5052731;28;20013;-73
2021/09/09 08:48:32;;;;;;;11.70;6.60;;;25.60;48.30;;;;;;5052604;28;20097;-72
2021/09/09 08:50:59;;;;;;;10.82;6.95;;;25.60;48.30;;;;;;5052649;28;20419;-71
2021/09/09 08:53:25;;;;;;;11.90;6.88;;;25.60;48.40;;;;;;5034525;28;20071;-71
2021/09/09 08:55:51;;;;;;;16.38;7.63;;;25.60;48.30;;;;;;5052262;28;20021;-72
2021/09/09 08:58:21;;;;;;;13.40;7.80;;;25.70;48.50;;;;;;5052429;28;20073;-74
2021/09/09 09:01:03;;;;;;;12.45;7.97;;;25.70;48.70;;;;;;5052277;28;20025;-70
2021/09/09 09:03:47;;;;;;;10.50;7.32;;;25.80;48.60;;;;;;5052393;28;20037;-72
2021/09/09 09:06:38;;;;;;;11.00;6.57;;;25.80;48.50;;;;;;5052155;28;20041;-71
2021/09/09 09:09:09;;;;;;;11.50;8.38;;;25.80;48.70;;;;;;5030744;28;20041;-72
2021/09/09 09:11:40;;;;;;;14.32;7.05;;;25.90;48.80;;;;;;5034043;28;20078;-72
2021/09/09 09:14:09;;;;;;;10.20;7.40;;;25.90;48.80;;;;;;5052353;28;20036;-74
2021/09/09 09:16:35;;;;;;;13.10;8.30;;;25.90;48.90;;;;;;5034260;28;20418;-72
2021/09/09 09:19:01;;;;;;;11.05;7.53;;;25.90;49.10;;;;;;5052609;28;20029;-72
2021/09/09 09:21:30;;;;;;;9.60;7.68;;;26.00;48.90;;;;;;5034578;28;20413;-72
2021/09/09 09:24:01;;;;;;;12.85;7.38;;;25.90;48.60;;;;;;5052782;28;20475;-72
2021/09/09 09:26:27;;;;;;;11.18;7.43;;;26.00;48.80;;;;;;5054322;28;20471;-73
2021/09/09 09:28:54;;;;;;;11.75;7.13;;;26.10;48.90;;;;;;5038939;28;20029;-74
2021/09/09 09:31:24;;;;;;;12.38;7.47;;;26.10;48.60;;;;;;5057226;28;20330;-72
2021/09/09 09:34:02;;;;;;;7.50;6.10;;;26.10;48.70;;;;;;5056263;28;20029;-72
2021/09/09 09:36:28;;;;;;;12.35;7.13;;;26.10;49.20;;;;;;5056071;28;20028;-72
2021/09/09 09:39:15;;;;;;;10.77;7.45;;;26.20;48.60;;;;;;5055972;28;20397;-72
2021/09/09 09:41:53;;;;;;;10.20;6.80;;;26.30;48.10;;;;;;5055486;28;20441;-71
2021/09/09 09:44:37;;;;;;;9.55;6.68;;;26.30;48.00;;;;;;5055878;28;20025;-71
2021/09/09 09:47:19;;;;;;;12.65;7.80;;;26.30;48.40;;;;;;5056127;28;20068;-73
2021/09/09 09:49:55;;;;;;;16.37;8.10;;;26.40;47.60;;;;;;5055771;28;20033;-71
2021/09/09 09:52:25;;;;;;;18.52;7.82;;;26.50;47.60;;;;;;5055738;28;20132;-70
2021/09/09 09:54:57;;;;;;;14.00;6.65;;;26.50;47.70;;;;;;5055662;28;20017;-71
2021/09/09 09:57:23;;;;;;;9.02;6.38;;;26.60;47.10;;;;;;5056072;28;20033;-71
2021/09/09 09:59:49;;;;;;;13.05;6.60;;;26.60;47.40;;;;;;5038161;28;20081;-72
2021/09/09 10:02:15;;;;;;;11.30;6.90;;;26.60;47.20;;;;;;5055558;28;20478;-71
2021/09/09 10:04:43;;;;;;;15.48;7.72;;;26.60;47.10;;;;;;5055737;28;20025;-72
2021/09/09 10:07:10;;;;;;;10.25;6.35;;;26.70;47.20;;;;;;5055215;28;20107;-73
2021/09/09 10:09:38;;;;;;;8.65;6.35;;;26.80;47.20;;;;;;5055588;28;20043;-71
2021/09/09 10:12:08;;;;;;;9.25;6.63;;;26.80;47.70;;;;;;5055481;28;20025;-72
2021/09/09 10:14:38;;;;;;;9.23;6.55;;;26.90;46.90;;;;;;5055313;28;20078;-72
2021/09/09 10:17:04;;;;;;;11.73;6.85;;;26.90;46.60;;;;;;5055016;28;20049;-72
2021/09/09 10:19:32;;;;;;;9.18;6.95;;;27.00;46.70;;;;;;5037447;28;20036;-72
2021/09/09 10:22:10;;;;;;;16.70;7.82;;;27.00;46.30;;;;;;5055468;28;20052;-72
2021/09/09 10:24:38;;;;;;;10.82;6.72;;;27.10;46.10;;;;;;5037407;28;20025;-72
2021/09/09 10:27:24;;;;;;;11.05;6.65;;;27.20;46.30;;;;;;5055465;28;20338;-71
2021/09/09 10:29:53;;;;;;;9.48;6.47;;;27.30;44.80;;;;;;5037205;28;20037;-72
2021/09/09 10:32:37;;;;;;;7.05;5.47;;;27.40;45.50;;;;;;5055183;28;20025;-72
2021/09/09 10:35:18;;;;;;;8.75;5.90;;;27.40;43.30;;;;;;5055095;28;20024;-72
2021/09/09 10:37:52;;;;;;;10.60;5.70;;;27.50;44.80;;;;;;5036616;28;20073;-73
2021/09/09 10:40:37;;;;;;;9.40;5.97;;;27.50;45.10;;;;;;5055558;28;20021;-73
2021/09/09 10:43:14;;;;;;;6.93;5.60;;;27.60;43.00;;;;;;5055094;28;20029;-73
2021/09/09 10:45:43;;;;;;;8.18;5.50;;;27.70;42.20;;;;;;5055215;28;20547;-74
2021/09/09 10:48:18;;;;;;;7.53;5.97;;;27.70;44.60;;;;;;5055092;28;20124;-74
2021/09/09 10:50:59;;;;;;;13.52;6.13;;;27.80;44.50;;;;;;5055160;28;20078;-73
2021/09/09 10:53:36;;;;;;;8.18;5.97;;;27.80;44.30;;;;;;5054826;28;20075;-73
2021/09/09 10:56:22;;;;;;;10.23;5.78;;;27.90;42.20;;;;;;5055259;28;20522;-73
2021/09/09 10:59:09;;;;;;;8.60;6.15;;;28.00;44.50;;;;;;5036694;28;20033;-73
2021/09/09 11:01:36;;;;;;;15.05;5.88;;;28.10;44.50;;;;;;5055143;28;20068;-76
2021/09/09 11:04:02;;;;;;;21.27;6.68;;;28.10;44.60;;;;;;5054902;28;20021;-73
2021/09/09 11:06:29;;;;;;;92.25;14.23;;;28.20;43.60;;;;;;5036657;28;20159;-74
2021/09/09 11:09:11;;;;;;;16.83;7.43;;;28.30;44.20;;;;;;5036618;28;20061;-75
2021/09/09 11:11:37;;;;;;;13.52;5.93;;;28.30;44.20;;;;;;5054371;28;20021;-74
2021/09/09 11:14:10;;;;;;;13.77;5.93;;;28.40;44.10;;;;;;5054179;28;20143;-72
2021/09/09 11:16:37;;;;;;;87.85;12.45;;;28.40;41.50;;;;;;5051925;23;20524;-75
2021/09/09 11:19:05;;;;;;;15.43;6.50;;;28.40;44.50;;;;;;5054106;28;20072;-74
2021/09/09 11:21:42;;;;;;;7.45;5.93;;;28.50;44.40;;;;;;5053311;28;20025;-73
2021/09/09 11:24:10;;;;;;;9.13;6.20;;;28.60;44.40;;;;;;5053270;28;20549;-74
2021/09/09 11:26:39;;;;;;;10.77;6.18;;;28.70;44.00;;;;;;5053340;28;20052;-75
2021/09/09 11:29:05;;;;;;;9.35;6.20;;;28.70;43.90;;;;;;5053566;28;20390;-75
2021/09/09 11:31:33;;;;;;;8.68;6.43;;;28.80;43.60;;;;;;5053170;28;20052;-75
2021/09/09 11:34:01;;;;;;;9.77;5.65;;;28.80;43.80;;;;;;5053168;28;20021;-73
2021/09/09 11:36:29;;;;;;;13.98;6.43;;;28.90;43.50;;;;;;5053373;28;20033;-72
2021/09/09 11:38:58;;;;;;;26.00;7.28;;;29.00;43.30;;;;;;5053174;28;20111;-75
2021/09/09 11:41:28;;;;;;;22.55;7.53;;;29.00;43.80;;;;;;5055129;28;20131;-73
2021/09/09 11:43:57;;;;;;;24.48;7.97;;;29.10;43.90;;;;;;5040674;28;20070;-76
2021/09/09 11:46:30;;;;;;;16.70;7.07;;;29.10;42.90;;;;;;5053545;28;20063;-73
2021/09/09 11:48:58;;;;;;;12.40;6.32;;;29.10;41.40;;;;;;5052570;28;20147;-73
2021/09/09 11:51:33;;;;;;;13.88;6.40;;;29.20;43.80;;;;;;5052421;28;20025;-73
2021/09/09 11:53:59;;;;;;;10.43;5.82;;;29.20;43.20;;;;;;5034987;28;20025;-71
2021/09/09 11:56:25;;;;;;;10.52;5.95;;;29.30;42.60;;;;;;5052816;28;20039;-77
2021/09/09 11:58:52;;;;;;;10.55;5.88;;;29.30;42.60;;;;;;5034509;28;20037;-77
2021/09/09 12:01:18;;;;;;;8.80;5.65;;;29.30;41.90;;;;;;5052574;28;20016;-79
2021/09/09 12:03:45;;;;;;;10.77;6.28;;;29.40;42.00;;;;;;5052766;28;20029;-77
2021/09/09 12:06:12;;;;;;;10.77;5.70;;;29.40;40.90;;;;;;5053031;28;20082;-76
2021/09/09 12:08:43;;;;;;;6.57;5.32;;;29.50;41.60;;;;;;5052927;28;20056;-76
2021/09/09 12:11:13;;;;;;;9.10;5.20;;;29.50;40.60;;;;;;5052382;28;20124;-77
2021/09/09 12:13:40;;;;;;;11.55;5.57;;;29.60;39.60;;;;;;5052742;28;20025;-73
2021/09/09 12:16:33;;;;;;;9.30;5.07;;;29.60;39.40;;;;;;5052155;28;20102;-74
2021/09/09 12:19:10;;;;;;;11.05;5.28;;;29.70;40.10;;;;;;5052697;28;20047;-75
2021/09/09 12:21:36;;;;;;;8.13;5.13;;;29.70;39.00;;;;;;5052623;28;20063;-76
2021/09/09 12:24:06;;;;;;;7.70;5.60;;;29.70;38.10;;;;;;5052669;28;20029;-75
2021/09/09 12:26:34;;;;;;;10.30;6.65;;;29.70;38.50;;;;;;5052532;28;20463;-72
2021/09/09 12:29:12;;;;;;;18.85;7.13;;;29.70;38.30;;;;;;5052374;28;20090;-72
2021/09/09 12:31:37;;;;;;;16.08;6.20;;;29.60;39.90;;;;;;5052947;28;20028;-70
2021/09/09 12:34:09;;;;;;;8.50;5.60;;;29.60;39.50;;;;;;5053105;28;20401;-71
2021/09/09 12:36:39;;;;;;;13.73;6.20;;;29.70;39.30;;;;;;5052807;28;20112;-74
2021/09/09 12:39:06;;;;;;;21.00;6.93;;;29.70;40.40;;;;;;5052901;28;20025;-72